Aérodrome :
LOGIN :

S'inscrire | Disclaimer

   EN    FR    IT 

 










Légende :    VFR   VFR Marginal   IFR   IFR Intensif   IFR Très Intensif
Visi : 
Plafond : 
>= 8 km
>= 3000ft
5 à 8 km
1000 à 3000 ft
1500m à 5 km
500 à 1000 ft
800 à 1500m
200 à 500 ft
< 800m
< 200 ft
Symboles :   Orages  Brouillard  Fortes neiges  Fortes précipitations  Vent > 20 kt
SIGMETs :   Divers  Orages  Givrage  Turbulence  Onde Orograph.  Cendres Volcan.






- Altitude de l'aérodrome : 472 ft
- Code IATA : GME


UMGG - Gomel

DERNIER METAR :
  • 221300Z 26008G11MPS 9999 BKN005 BKN070 01/01 Q1005 R28/290050 NOSIG RMK QBB160

METARs EXPIRÉS :
  • 221230Z 25007G10MPS 9999 BKN003 BKN022CB 01/00 Q1005 R28/290050 NOSIG RMK QBB110
  • 221200Z 24007G10MPS 9999 BKN003 BKN019CB 01/00 Q1005 R28/290050 NOSIG RMK QBB110
  • 221130Z 26005G08MPS 9999 SCT004 OVC020CB 01/01 Q1006 R28/290050 NOSIG RMK QBB130
  • 221100Z 28007G10MPS 5000 -SHRASN BKN006 OVC020CB 01/01 Q1006 R28/290050 NOSIG RMK QBB180
  • 221030Z 28008G12MPS 4000 -SHRA BKN007 OVC020CB 02/01 Q1006 R28/290050 NOSIG

TAF TAF UMGG
Valide du 22 à 12h jusqu'au 23 à 12h UTC


221058Z 2212/2312 30008G13MPS 6000 BKN008 TX02/2212Z TNM01/2220Z
TEMPO 2212/2219 32012G17MPS 1400 SHSNRA BKN004 BKN015CB
TEMPO 2219/2312 32013G18MPS



MET'MAP, la Météo Aéronautique d'un coup d'oeil ! - Copyright ORBIFLY Décembre 2007 - Disclaimer

ORBIFLY MET'MAP TEAM :

Programmation & Développement : Alexandra Zaïnal
Sur une idée originale de : Baudouin d'Aumeries
Assistance à la programmation : Marc-Olivier Méhu
Soutien technique & logistique : Manuel Goepfert

Contact : metmap@orbifly.com




SOURCES & CREDITS :

   NOAA